Time;durP1;ratioP1;P1;durP2;ratioP2;P2;SDS_P1;SDS_P2;PMS_P1;PMS_P2;Temp;Humidity;BMP_temperature;BMP_pressure;BME280_temperature;BME280_humidity;BME280_pressure;Samples;Min_cycle;Max_cycle;Signal;HPM_P1;HPM_P2
2022/12/11 00:01:55;;;;;;;19.13;10.55;;;;;;;0.45;100.00;97300.25;4968975;28;20152;-82
2022/12/11 00:04:39;;;;;;;17.58;10.30;;;;;;;0.40;100.00;97291.94;4985443;28;20061;-82
2022/12/11 00:07:26;;;;;;;20.25;10.35;;;;;;;0.47;100.00;97291.53;4985080;28;20049;-84
2022/12/11 00:10:11;;;;;;;17.15;9.90;;;;;;;0.52;100.00;97293.91;4983828;28;20050;-84
2022/12/11 00:12:56;;;;;;;17.27;9.80;;;;;;;0.57;100.00;97279.00;4972228;28;20045;-82
2022/12/11 00:15:40;;;;;;;16.02;9.68;;;;;;;0.54;100.00;97291.25;4978141;28;20053;-82
2022/12/11 00:18:25;;;;;;;17.90;10.48;;;;;;;0.48;100.00;97298.38;4985528;28;20049;-82
2022/12/11 00:21:13;;;;;;;17.48;10.10;;;;;;;0.53;100.00;97285.25;4988622;28;20085;-83
2022/12/11 00:23:58;;;;;;;16.25;9.15;;;;;;;0.46;100.00;97289.03;4972074;28;20068;-82
2022/12/11 00:26:44;;;;;;;16.90;9.82;;;;;;;0.55;100.00;97285.16;4985621;28;20074;-82
2022/12/11 00:29:29;;;;;;;19.17;10.10;;;;;;;0.41;100.00;97288.47;4986745;28;20042;-83
2022/12/11 00:32:13;;;;;;;18.05;10.07;;;;;;;0.60;100.00;97288.34;4981715;28;20137;-83
2022/12/11 00:34:58;;;;;;;19.95;9.77;;;;;;;0.61;100.00;97292.59;4970929;28;20042;-82
2022/12/11 00:37:43;;;;;;;17.70;9.60;;;;;;;0.43;100.00;97286.63;4988972;28;20700;-82
2022/12/11 00:40:28;;;;;;;18.30;9.82;;;;;;;0.44;100.00;97285.72;4986726;28;20093;-83
2022/12/11 00:43:13;;;;;;;17.67;9.65;;;;;;;0.42;100.00;97292.69;4980985;28;20057;-81
2022/12/11 00:45:58;;;;;;;20.27;10.88;;;;;;;0.36;100.00;97292.09;4985560;28;20038;-81
2022/12/11 00:48:45;;;;;;;18.50;9.98;;;;;;;0.43;100.00;97295.19;4985311;28;20548;-82
2022/12/11 00:51:31;;;;;;;17.50;9.65;;;;;;;0.48;100.00;97300.09;4983843;28;20030;-80
2022/12/11 00:54:16;;;;;;;15.88;9.63;;;;;;;0.40;100.00;97274.72;4983706;28;20132;-82
2022/12/11 00:57:01;;;;;;;19.08;10.95;;;;;;;0.32;100.00;97282.00;4987793;28;20069;-82
2022/12/11 00:59:45;;;;;;;17.30;9.70;;;;;;;0.51;100.00;97292.22;4982872;28;20052;-83
2022/12/11 01:02:30;;;;;;;16.33;9.40;;;;;;;0.47;100.00;97296.69;4986783;28;20065;-81
2022/12/11 01:05:15;;;;;;;15.88;9.02;;;;;;;0.32;100.00;97295.75;4984256;28;20058;-82
2022/12/11 01:08:01;;;;;;;18.83;10.25;;;;;;;0.47;100.00;97291.53;4985932;28;20117;-82
2022/12/11 01:10:46;;;;;;;18.00;9.95;;;;;;;0.46;100.00;97301.91;4988556;28;20057;-82
2022/12/11 01:13:31;;;;;;;18.45;10.55;;;;;;;0.40;100.00;97295.34;4956144;28;20048;-80
2022/12/11 01:16:15;;;;;;;20.60;11.00;;;;;;;0.58;100.00;97310.78;4986886;28;20096;-81
2022/12/11 01:19:00;;;;;;;18.88;10.50;;;;;;;0.66;100.00;97294.91;4981776;28;20042;-81
2022/12/11 01:21:44;;;;;;;19.77;10.73;;;;;;;0.53;100.00;97298.13;4959002;28;20139;-82
2022/12/11 01:24:30;;;;;;;19.95;10.05;;;;;;;0.64;100.00;97318.19;4985102;28;20034;-82
2022/12/11 01:27:15;;;;;;;19.75;10.80;;;;;;;0.48;100.00;97306.09;4970376;28;20050;-83
2022/12/11 01:30:00;;;;;;;17.45;9.70;;;;;;;0.39;100.00;97301.44;4984078;28;20093;-82
2022/12/11 01:32:45;;;;;;;18.45;10.75;;;;;;;0.33;100.00;97307.69;4984024;28;20083;-82
2022/12/11 01:35:30;;;;;;;19.50;10.00;;;;;;;0.41;100.00;97299.59;4982845;28;20047;-81
2022/12/11 01:38:14;;;;;;;19.45;10.18;;;;;;;0.48;100.00;97306.09;4984893;28;20054;-82
2022/12/11 01:40:59;;;;;;;21.08;10.98;;;;;;;0.55;100.00;97306.63;4969487;28;20092;-81
2022/12/11 01:44:07;;;;;;;21.40;11.27;;;;;;;0.38;100.00;97311.81;4966402;28;20108;-82
2022/12/11 01:46:52;;;;;;;19.17;10.60;;;;;;;0.48;100.00;97311.25;4984867;28;20038;-80
2022/12/11 01:49:39;;;;;;;18.77;10.27;;;;;;;0.45;100.00;97320.88;4985851;28;20054;-82
2022/12/11 01:52:24;;;;;;;20.65;11.93;;;;;;;0.34;100.00;97311.13;4968464;28;20085;-81
2022/12/11 01:55:08;;;;;;;20.50;11.55;;;;;;;0.42;100.00;97324.47;4980178;28;20073;-81
2022/12/11 01:57:53;;;;;;;19.58;11.25;;;;;;;0.39;100.00;97326.34;4986675;28;20046;-81
2022/12/11 02:00:38;;;;;;;17.98;10.13;;;;;;;0.58;100.00;97326.25;4989614;28;20046;-82
2022/12/11 02:03:22;;;;;;;20.80;11.30;;;;;;;0.45;100.00;97316.56;4980154;28;20039;-83
2022/12/11 02:06:47;;;;;;;19.23;11.18;;;;;;;0.41;100.00;97325.34;4985724;28;20218;-83
2022/12/11 02:09:34;;;;;;;20.38;11.32;;;;;;;0.48;100.00;97337.03;4983160;28;20040;-80
2022/12/11 02:12:35;;;;;;;18.08;10.80;;;;;;;0.45;100.00;97331.19;4971643;28;20432;-81
2022/12/11 02:15:34;;;;;;;19.95;11.35;;;;;;;0.55;100.00;97342.72;4972979;28;20038;-81
2022/12/11 02:18:31;;;;;;;20.63;11.05;;;;;;;0.45;100.00;97354.38;4977405;28;20503;-81
2022/12/11 02:21:24;;;;;;;19.13;10.43;;;;;;;0.40;100.00;97343.47;4984746;28;20442;-81
2022/12/11 02:24:45;;;;;;;23.33;11.93;;;;;;;0.30;100.00;97343.94;4982167;28;20078;-82
2022/12/11 02:27:46;;;;;;;20.98;10.50;;;;;;;0.44;100.00;97335.50;4985509;28;20261;-81
2022/12/11 02:30:34;;;;;;;21.92;11.00;;;;;;;0.35;100.00;97321.34;4991158;28;20045;-82
2022/12/11 02:33:33;;;;;;;21.33;11.10;;;;;;;0.41;100.00;97337.44;4987324;28;20444;-82
2022/12/11 02:36:22;;;;;;;21.02;10.93;;;;;;;0.28;100.00;97326.91;4985767;28;20052;-82
2022/12/11 02:39:11;;;;;;;22.60;11.68;;;;;;;0.29;100.00;97331.13;4986343;28;20054;-81
2022/12/11 02:41:57;;;;;;;20.02;10.80;;;;;;;0.31;100.00;97329.31;4988817;28;20081;-82
2022/12/11 02:44:43;;;;;;;23.65;11.48;;;;;;;0.34;100.00;97345.44;4968116;28;20045;-80
2022/12/11 02:47:30;;;;;;;20.35;10.55;;;;;;;0.42;100.00;97332.19;4989192;28;20038;-81
2022/12/11 02:50:19;;;;;;;20.15;10.98;;;;;;;0.28;100.00;97330.28;4987866;28;20053;-82
2022/12/11 02:53:06;;;;;;;23.05;12.38;;;;;;;0.28;100.00;97327.72;4960866;28;20066;-82
2022/12/11 02:56:02;;;;;;;20.80;11.43;;;;;;;0.21;100.00;97321.22;4983429;28;20034;-81
2022/12/11 02:58:52;;;;;;;22.25;11.63;;;;;;;0.26;100.00;97318.41;4988630;28;20058;-81
2022/12/11 03:01:37;;;;;;;23.38;11.63;;;;;;;0.12;100.00;97319.91;4960203;28;20043;-81
2022/12/11 03:04:23;;;;;;;23.80;13.00;;;;;;;0.04;100.00;97309.97;4984650;28;20066;-83
2022/12/11 03:07:14;;;;;;;25.52;13.23;;;;;;;0.04;100.00;97304.00;4986690;28;20249;-82
2022/12/11 03:09:59;;;;;;;21.52;12.05;;;;;;;0.22;100.00;97299.69;4985236;28;20054;-81
2022/12/11 03:12:47;;;;;;;27.55;13.77;;;;;;;0.15;100.00;97290.59;4988106;28;20104;-82
2022/12/11 03:16:01;;;;;;;26.23;13.60;;;;;;;0.08;100.00;97300.38;4985752;28;20057;-80
2022/12/11 03:19:15;;;;;;;25.98;13.45;;;;;;;0.23;100.00;97309.06;4988058;28;20128;-83
2022/12/11 03:22:25;;;;;;;23.58;13.57;;;;;;;0.27;100.00;97308.00;4945238;28;20540;-82
2022/12/11 03:25:24;;;;;;;26.50;13.57;;;;;;;0.09;100.00;97300.28;4945066;28;20063;-82
2022/12/11 03:28:11;;;;;;;25.60;14.13;;;;;;;0.03;100.00;97320.34;4945141;28;20138;-82
2022/12/11 03:31:00;;;;;;;23.17;12.57;;;;;;;0.15;100.00;97308.63;4947565;28;20054;-81
2022/12/11 03:33:49;;;;;;;25.75;13.40;;;;;;;0.08;100.00;97303.75;4938264;28;20090;-80
2022/12/11 03:36:37;;;;;;;26.75;13.73;;;;;;;0.02;100.00;97309.22;4947152;28;20325;-81
2022/12/11 03:39:29;;;;;;;24.55;12.75;;;;;;;-0.03;100.00;97304.28;4950652;28;20059;-81
2022/12/11 03:42:16;;;;;;;24.40;13.20;;;;;;;-0.13;100.00;97314.19;4950915;28;20050;-80
2022/12/11 03:45:03;;;;;;;27.70;14.43;;;;;;;-0.23;100.00;97309.56;4931570;28;20161;-82
2022/12/11 03:47:51;;;;;;;27.35;13.45;;;;;;;-0.07;100.00;97307.94;4924315;28;20066;-82
2022/12/11 03:50:36;;;;;;;25.80;12.45;;;;;;;-0.07;100.00;97309.66;4945665;28;20039;-81
2022/12/11 03:53:23;;;;;;;27.45;13.93;;;;;;;-0.07;100.00;97312.25;4949234;28;20053;-80
2022/12/11 03:56:11;;;;;;;25.55;13.07;;;;;;;-0.24;100.00;97303.59;4944343;28;20125;-80
2022/12/11 03:58:56;;;;;;;24.17;12.88;;;;;;;-0.31;100.00;97315.09;4973729;28;20046;-80
2022/12/11 04:01:40;;;;;;;29.17;13.40;;;;;;;-0.31;100.00;97312.53;4970133;28;20045;-81
2022/12/11 04:04:25;;;;;;;27.25;13.68;;;;;;;-0.31;100.00;97320.25;4984318;28;20496;-81
2022/12/11 04:07:10;;;;;;;28.23;13.02;;;;;;;-0.46;100.00;97316.63;4987935;28;20082;-80
2022/12/11 04:09:55;;;;;;;27.98;14.88;;;;;;;-0.32;100.00;97319.41;4986993;28;20042;-81
2022/12/11 04:12:39;;;;;;;24.58;13.07;;;;;;;-0.18;100.00;97315.34;4973392;28;20551;-83
2022/12/11 04:15:25;;;;;;;27.17;13.65;;;;;;;-0.47;100.00;97304.69;4968915;28;20504;-81
2022/12/11 04:24:16;;;;;;;25.10;12.63;;;;;;;-0.70;100.00;97312.56;4987217;28;20126;-82
2022/12/11 04:27:01;;;;;;;26.02;13.23;;;;;;;-0.51;100.00;97315.09;4972528;28;20038;-80
2022/12/11 04:29:46;;;;;;;23.77;13.40;;;;;;;-0.70;100.00;97312.56;4982444;28;20330;-82
2022/12/11 04:32:30;;;;;;;22.05;12.43;;;;;;;-0.80;100.00;97307.00;4986599;28;20043;-81
2022/12/11 04:35:15;;;;;;;24.48;13.80;;;;;;;-0.77;100.00;97317.13;4959468;28;20436;-82
2022/12/11 04:38:00;;;;;;;23.33;12.88;;;;;;;-0.75;100.00;97299.06;4971176;28;20117;-79
2022/12/11 04:40:46;;;;;;;22.75;12.80;;;;;;;-0.80;100.00;97304.41;4984831;28;20057;-81
2022/12/11 04:43:30;;;;;;;25.02;12.02;;;;;;;-0.74;100.00;97308.47;4957471;28;20494;-81
2022/12/11 04:46:18;;;;;;;22.63;11.80;;;;;;;-0.64;100.00;97314.03;4986060;28;20492;-82
2022/12/11 04:49:03;;;;;;;21.40;12.10;;;;;;;-0.55;100.00;97317.88;4951285;28;20034;-82
2022/12/11 04:51:48;;;;;;;20.48;11.32;;;;;;;-0.63;100.00;97329.38;4973513;28;20305;-82
2022/12/11 04:54:33;;;;;;;20.88;11.35;;;;;;;-0.39;100.00;97329.16;4966072;28;20070;-81
2022/12/11 04:57:20;;;;;;;22.65;11.43;;;;;;;-0.57;100.00;97328.25;4985639;28;20062;-81
2022/12/11 05:00:07;;;;;;;23.08;12.00;;;;;;;-0.52;100.00;97331.47;4986428;28;20088;-80
2022/12/11 05:02:52;;;;;;;19.50;10.60;;;;;;;-0.50;100.00;97345.09;4985005;28;20080;-81
2022/12/11 05:05:37;;;;;;;21.88;11.98;;;;;;;-0.63;100.00;97337.09;4984098;28;20065;-81
2022/12/11 05:08:21;;;;;;;20.27;11.40;;;;;;;-0.50;100.00;97346.81;4985403;28;20433;-81
2022/12/11 05:11:11;;;;;;;21.15;11.60;;;;;;;-0.40;100.00;97355.81;4980741;28;20137;-81
2022/12/11 05:13:55;;;;;;;22.80;12.23;;;;;;;-0.49;100.00;97345.94;4984625;28;20464;-82
2022/12/11 05:16:40;;;;;;;20.73;10.90;;;;;;;-0.56;100.00;97347.13;4986395;28;20050;-79
2022/12/11 05:19:25;;;;;;;20.58;12.50;;;;;;;-0.60;100.00;97356.69;4970234;28;20129;-80
2022/12/11 05:22:10;;;;;;;21.38;11.82;;;;;;;-0.80;100.00;97344.75;4971755;28;20128;-82
2022/12/11 05:24:55;;;;;;;21.27;11.85;;;;;;;-0.62;100.00;97364.50;4985774;28;20034;-81
2022/12/11 05:27:39;;;;;;;19.52;11.50;;;;;;;-0.54;100.00;97366.72;4969339;28;20039;-82
2022/12/11 05:30:24;;;;;;;22.05;12.48;;;;;;;-0.75;100.00;97373.66;4971536;28;20054;-81
2022/12/11 05:33:09;;;;;;;19.45;10.95;;;;;;;-0.71;100.00;97364.06;4989488;28;20112;-81
2022/12/11 05:35:54;;;;;;;22.20;11.75;;;;;;;-0.85;100.00;97373.25;4983004;28;20780;-81
2022/12/11 05:38:39;;;;;;;22.83;11.82;;;;;;;-0.81;100.00;97381.66;4959337;28;20072;-80
2022/12/11 05:41:26;;;;;;;22.08;11.60;;;;;;;-0.90;100.00;97378.56;4988717;28;20580;-81
2022/12/11 05:44:12;;;;;;;22.92;11.40;;;;;;;-0.84;100.00;97376.66;4982526;28;20058;-82
2022/12/11 05:46:56;;;;;;;18.02;11.35;;;;;;;-0.79;100.00;97365.25;4955678;28;20077;-80
2022/12/11 05:49:42;;;;;;;24.10;12.02;;;;;;;-0.71;100.00;97370.06;4989683;28;20496;-80
2022/12/11 05:52:26;;;;;;;20.80;11.50;;;;;;;-0.81;100.00;97377.34;4978871;28;20515;-80
2022/12/11 05:55:11;;;;;;;21.30;12.20;;;;;;;-1.02;100.00;97363.69;4977504;28;20069;-80
2022/12/11 05:57:57;;;;;;;20.45;11.23;;;;;;;-1.02;100.00;97382.53;4987514;28;20042;-80
2022/12/11 06:00:42;;;;;;;23.40;12.02;;;;;;;-0.93;100.00;97396.72;4978385;28;20053;-81
2022/12/11 06:03:26;;;;;;;27.55;11.32;;;;;;;-1.10;100.00;97379.47;4974105;28;20042;-83
2022/12/11 06:06:11;;;;;;;21.40;10.70;;;;;;;-1.01;100.00;97396.22;4969054;28;20068;-81
2022/12/11 06:08:57;;;;;;;19.52;11.32;;;;;;;-1.04;100.00;97402.34;4984375;28;20416;-81
2022/12/11 06:11:42;;;;;;;21.17;11.68;;;;;;;-0.65;100.00;97410.09;4990628;28;20720;-81
2022/12/11 06:14:27;;;;;;;21.75;12.18;;;;;;;-0.95;100.00;97401.13;4967605;28;20089;-83
2022/12/11 06:17:11;;;;;;;21.27;10.90;;;;;;;-1.02;100.00;97415.13;4984444;28;20518;-81
2022/12/11 06:19:56;;;;;;;20.77;11.25;;;;;;;-0.89;100.00;97410.28;4983954;28;20506;-83
2022/12/11 06:22:41;;;;;;;22.17;11.25;;;;;;;-1.01;100.00;97427.91;4963765;28;20396;-84
2022/12/11 06:25:25;;;;;;;20.10;10.25;;;;;;;-0.93;100.00;97419.03;4971051;28;20046;-84
2022/12/11 06:28:11;;;;;;;20.70;11.02;;;;;;;-0.98;100.00;97431.25;4959002;28;20045;-84
2022/12/11 06:30:58;;;;;;;20.63;11.27;;;;;;;-1.07;100.00;97430.75;4971769;28;20038;-82
2022/12/11 06:33:43;;;;;;;21.02;10.98;;;;;;;-1.24;100.00;97427.16;4984639;28;20045;-83
2022/12/11 06:36:27;;;;;;;17.98;10.65;;;;;;;-1.30;100.00;97419.69;4991639;28;20054;-83
2022/12/11 06:39:13;;;;;;;18.52;10.52;;;;;;;-1.22;100.00;97426.25;4982295;28;20053;-82
2022/12/11 06:41:59;;;;;;;17.27;9.88;;;;;;;-1.17;100.00;97419.19;4972254;28;20058;-82
2022/12/11 06:44:44;;;;;;;20.20;10.40;;;;;;;-1.24;100.00;97428.91;4972487;28;20050;-84
2022/12/11 06:47:32;;;;;;;20.02;11.00;;;;;;;-1.20;100.00;97445.84;4990256;28;20109;-84
2022/12/11 06:50:17;;;;;;;17.95;10.13;;;;;;;-1.15;100.00;97433.66;4980156;28;20049;-82
2022/12/11 06:53:01;;;;;;;18.30;9.98;;;;;;;-1.23;100.00;97438.28;4976187;28;20046;-80
2022/12/11 06:55:46;;;;;;;18.52;10.00;;;;;;;-1.08;100.00;97439.38;4986756;28;20399;-83
2022/12/11 06:58:33;;;;;;;17.58;9.38;;;;;;;-1.25;100.00;97434.91;4973582;28;20411;-83
2022/12/11 07:01:26;;;;;;;16.50;9.32;;;;;;;-1.29;100.00;97428.25;4974261;28;20109;-81
2022/12/11 07:04:12;;;;;;;15.82;9.65;;;;;;;-1.42;100.00;97431.31;4984285;28;20093;-83
2022/12/11 07:06:57;;;;;;;18.08;9.20;;;;;;;-1.31;100.00;97424.91;4958272;28;20050;-82
2022/12/11 07:09:42;;;;;;;15.98;8.75;;;;;;;-1.23;100.00;97448.56;4984025;28;20050;-82
2022/12/11 07:12:27;;;;;;;15.20;8.77;;;;;;;-1.22;100.00;97449.41;4988416;28;20046;-84
2022/12/11 07:15:12;;;;;;;13.60;7.72;;;;;;;-1.41;100.00;97451.00;4974911;28;20062;-85
2022/12/11 07:17:57;;;;;;;13.10;7.63;;;;;;;-1.51;100.00;97447.09;4959278;28;20235;-83
2022/12/11 07:20:42;;;;;;;14.23;7.68;;;;;;;-0.90;100.00;97450.59;4975782;28;20081;-81
2022/12/11 07:23:27;;;;;;;11.95;6.85;;;;;;;-1.12;100.00;97448.09;4951113;28;20104;-80
2022/12/11 07:26:15;;;;;;;13.45;7.63;;;;;;;-1.27;100.00;97465.84;4971641;28;20093;-81
2022/12/11 07:29:00;;;;;;;14.93;8.90;;;;;;;-1.49;100.00;97464.16;4988512;28;20109;-82
2022/12/11 07:31:44;;;;;;;13.13;7.85;;;;;;;-1.42;100.00;97446.72;4971934;28;20054;-81
2022/12/11 07:34:31;;;;;;;17.02;8.65;;;;;;;-1.33;100.00;97466.09;4984287;28;20049;-83
2022/12/11 07:37:15;;;;;;;12.82;8.25;;;;;;;-1.55;100.00;97474.66;4987229;28;20464;-83
2022/12/11 07:40:00;;;;;;;13.63;8.35;;;;;;;-1.46;100.00;97473.47;4972546;28;20045;-81
2022/12/11 07:42:45;;;;;;;15.07;8.30;;;;;;;-1.59;100.00;97482.53;4979376;28;20054;-82
2022/12/11 07:45:30;;;;;;;13.05;7.95;;;;;;;-1.68;100.00;97465.78;4971529;28;20097;-82
2022/12/11 07:48:15;;;;;;;13.57;7.90;;;;;;;-1.64;100.00;97475.88;4987544;28;20062;-83
2022/12/11 07:51:15;;;;;;;13.80;7.35;;;;;;;-1.40;100.00;97475.78;4999161;28;20038;-83
2022/12/11 07:54:07;;;;;;;10.88;6.60;;;;;;;-1.20;100.00;97475.84;4982583;28;20045;-84
2022/12/11 07:56:51;;;;;;;11.93;7.65;;;;;;;-1.45;100.00;97487.16;4970675;28;20042;-82
2022/12/11 07:59:36;;;;;;;10.80;6.72;;;;;;;-1.43;100.00;97480.19;4987575;28;20065;-85
2022/12/11 08:02:22;;;;;;;11.13;6.90;;;;;;;-1.51;100.00;97483.06;4967590;28;20042;-84
2022/12/11 08:05:09;;;;;;;11.32;6.88;;;;;;;-1.52;100.00;97471.13;4975952;28;20078;-86
2022/12/11 08:07:57;;;;;;;10.63;7.00;;;;;;;-1.42;100.00;97484.47;4975463;28;20486;-86
2022/12/11 08:10:41;;;;;;;11.20;6.82;;;;;;;-1.28;100.00;97486.47;4977171;28;20046;-84
2022/12/11 08:13:28;;;;;;;11.55;7.18;;;;;;;-1.33;100.00;97491.78;4986818;28;20615;-87
2022/12/11 08:16:16;;;;;;;12.75;7.00;;;;;;;-0.41;100.00;97487.13;4976469;28;20054;-83
2022/12/11 08:19:01;;;;;;;13.25;7.10;;;;;;;0.98;100.00;97483.28;4986606;28;20514;-75
2022/12/11 08:21:45;;;;;;;10.40;5.95;;;;;;;0.48;100.00;97494.25;4988075;28;20475;-82
2022/12/11 08:24:31;;;;;;;9.30;5.70;;;;;;;-0.87;100.00;97491.63;4967785;28;20047;-80
2022/12/11 08:27:17;;;;;;;10.90;6.25;;;;;;;-1.14;100.00;97499.59;4979778;28;20044;-82
2022/12/11 08:30:03;;;;;;;11.43;6.70;;;;;;;-1.12;100.00;97504.66;4985854;28;20038;-83
2022/12/11 08:32:48;;;;;;;11.30;6.35;;;;;;;-1.06;100.00;97516.44;4988098;28;20514;-81
2022/12/11 08:35:38;;;;;;;12.05;7.20;;;;;;;-1.20;100.00;97524.69;4983182;28;20059;-82
2022/12/11 08:38:22;;;;;;;11.25;6.57;;;;;;;-1.13;100.00;97533.84;4984531;28;20097;-80
2022/12/11 08:41:17;;;;;;;12.02;6.82;;;;;;;-0.92;100.00;97545.00;4981291;28;20074;-81
2022/12/11 08:44:02;;;;;;;11.02;7.32;;;;;;;-1.01;100.00;97546.19;4980179;28;20125;-83
2022/12/11 08:46:47;;;;;;;11.88;7.13;;;;;;;-0.89;100.00;97549.16;4983664;28;20042;-79
2022/12/11 08:49:31;;;;;;;12.57;7.88;;;;;;;-1.08;100.00;97549.94;4980034;28;20047;-82
2022/12/11 08:52:16;;;;;;;13.32;7.60;;;;;;;-1.12;100.00;97551.78;4979403;28;20047;-81
2022/12/11 08:55:00;;;;;;;12.18;7.38;;;;;;;-1.17;100.00;97563.13;4976560;28;20471;-85
2022/12/11 08:57:45;;;;;;;11.18;6.80;;;;;;;-0.81;100.00;97569.41;4977093;28;20046;-82
2022/12/11 09:00:29;;;;;;;10.85;6.80;;;;;;;-1.01;100.00;97569.34;4985178;28;20070;-83
2022/12/11 09:03:14;;;;;;;12.95;7.45;;;;;;;-0.97;100.00;97571.78;4978911;28;20089;-81
2022/12/11 09:05:59;;;;;;;12.98;7.35;;;;;;;-1.01;100.00;97573.63;4981552;28;20062;-81
2022/12/11 09:08:45;;;;;;;11.77;7.22;;;;;;;-1.04;100.00;97561.75;4976450;28;20129;-83
2022/12/11 09:11:33;;;;;;;14.38;8.63;;;;;;;-1.02;100.00;97574.53;4982861;28;20042;-79
2022/12/11 09:14:17;;;;;;;12.43;7.75;;;;;;;-0.54;100.00;97566.59;4973237;28;20462;-80
2022/12/11 09:17:04;;;;;;;11.80;7.32;;;;;;;-0.32;100.00;97569.09;4985761;28;20101;-82
2022/12/11 09:19:49;;;;;;;12.98;8.02;;;;;;;0.21;100.00;97568.53;4970426;28;20072;-78
2022/12/11 09:22:33;;;;;;;12.38;7.30;;;;;;;0.35;100.00;97567.88;4978552;28;20076;-78
2022/12/11 09:25:18;;;;;;;12.45;7.18;;;;;;;0.28;100.00;97569.09;4981277;28;20810;-80
2022/12/11 09:28:03;;;;;;;13.63;6.60;;;;;;;0.34;100.00;97569.63;4961488;28;20108;-82
2022/12/11 09:30:48;;;;;;;12.00;6.82;;;;;;;0.15;100.00;97556.75;4976968;28;20049;-83
2022/12/11 09:33:32;;;;;;;12.57;7.10;;;;;;;0.26;100.00;97556.28;4982139;28;20515;-87
2022/12/11 09:36:18;;;;;;;10.95;6.53;;;;;;;0.56;100.00;97555.75;4984667;28;20041;-84
2022/12/11 09:39:08;;;;;;;9.82;6.55;;;;;;;0.67;100.00;97565.53;4941068;28;20145;-85
2022/12/11 09:42:13;;;;;;;11.20;7.15;;;;;;;0.36;99.69;97554.09;4948707;28;20085;-86
2022/12/11 09:45:01;;;;;;;11.15;6.55;;;;;;;0.25;100.00;97541.69;4981847;28;20080;-86
2022/12/11 09:47:57;;;;;;;10.80;6.88;;;;;;;0.15;100.00;97551.59;4984213;28;20140;-90
2022/12/11 09:50:41;;;;;;;12.23;6.88;;;;;;;0.28;100.00;97551.88;4965394;28;20074;-89
2022/12/11 09:53:34;;;;;;;11.68;7.43;;;;;;;0.02;100.00;97564.19;4962499;28;20401;-86
2022/12/11 09:56:30;;;;;;;11.88;7.43;;;;;;;0.22;100.00;97557.31;4965002;28;20078;-86
2022/12/11 09:59:36;;;;;;;13.00;7.28;;;;;;;0.20;100.00;97554.81;4973593;28;20050;-87
2022/12/11 10:02:49;;;;;;;10.52;6.38;;;;;;;0.04;100.00;97556.38;4983186;28;20119;-87
2022/12/11 10:05:44;;;;;;;11.23;7.20;;;;;;;-0.21;100.00;97560.06;4972290;28;20696;-87
2022/12/11 10:08:37;;;;;;;10.55;6.55;;;;;;;-0.15;100.00;97560.63;4978056;28;20053;-87
2022/12/11 13:38:04;;;;;;;8.35;5.25;;;;;;;-0.34;86.73;97573.47;5155016;23;20140;-62
2022/12/11 13:40:53;;;;;;;10.02;4.95;;;;;;;-0.56;84.73;97564.09;4885007;29;20074;-58
2022/12/11 13:46:03;;;;;;;10.10;5.68;;;;;;;-0.13;88.29;97576.00;5112009;27;20474;-60
2022/12/11 13:48:55;;;;;;;9.73;5.05;;;;;;;-0.64;87.96;97561.81;5100221;28;20099;-58
2022/12/11 13:51:51;;;;;;;7.65;5.40;;;;;;;-0.74;86.63;97565.69;5100495;28;20051;-56
2022/12/11 13:54:36;;;;;;;7.95;5.30;;;;;;;-0.72;87.94;97573.34;5103932;28;20046;-53
2022/12/11 13:57:29;;;;;;;11.98;5.25;;;;;;;-0.22;87.49;97569.53;5099718;28;20059;-56
2022/12/11 14:00:31;;;;;;;9.00;4.88;;;;;;;0.59;97.76;97571.06;5100435;28;20063;-57
2022/12/11 14:03:17;;;;;;;9.05;4.80;;;;;;;-0.21;84.82;97573.75;5095164;28;20144;-58
2022/12/11 14:06:03;;;;;;;7.45;4.53;;;;;;;-0.38;86.63;97582.22;5060381;28;20102;-54
2022/12/11 14:08:50;;;;;;;7.80;4.72;;;;;;;-0.54;87.03;97588.00;5042293;28;20066;-57
2022/12/11 14:11:39;;;;;;;7.80;4.60;;;;;;;-0.63;83.07;97586.69;5057416;28;20144;-57
2022/12/11 14:14:39;;;;;;;9.50;5.20;;;;;;;-0.33;86.68;97603.47;5054435;28;20896;-62
2022/12/11 14:17:27;;;;;;;7.85;4.50;;;;;;;-0.93;84.58;97599.88;5057078;28;20055;-62
2022/12/11 14:20:19;;;;;;;9.30;4.72;;;;;;;-0.56;92.18;97602.69;5040652;28;20041;-56
2022/12/11 14:23:21;;;;;;;8.30;5.00;;;;;;;-0.06;93.59;97610.03;5058389;28;20045;-55
2022/12/11 14:26:18;;;;;;;7.53;4.60;;;;;;;-0.04;87.92;97606.53;5062156;28;20045;-50
2022/12/11 14:29:04;;;;;;;6.05;4.13;;;;;;;-0.79;86.61;97608.78;5055379;28;20147;-54
2022/12/11 14:31:49;;;;;;;8.48;4.85;;;;;;;-0.18;93.14;97611.44;5060976;28;20582;-53
2022/12/11 14:34:43;;;;;;;6.63;4.20;;;;;;;-0.62;84.90;97606.34;5059646;28;20526;-55
2022/12/11 14:37:30;;;;;;;8.88;4.40;;;;;;;-0.39;89.47;97612.28;5059361;28;20092;-59
2022/12/11 14:40:21;;;;;;;7.22;4.57;;;;;;;-0.40;85.48;97608.03;5059668;28;20059;-59
2022/12/11 14:43:20;;;;;;;10.32;4.95;;;;;;;-0.35;89.12;97607.00;5074564;28;20040;-56
2022/12/11 14:46:16;;;;;;;8.05;5.03;;;;;;;-0.41;90.79;97606.34;5102623;28;20059;-55
2022/12/11 14:49:05;;;;;;;7.20;4.60;;;;;;;-0.81;86.10;97608.84;5099525;28;20047;-58
2022/12/11 14:51:52;;;;;;;7.75;4.38;;;;;;;-0.92;85.00;97616.16;5089400;28;20055;-53
2022/12/11 14:54:44;;;;;;;7.50;4.93;;;;;;;-0.84;83.60;97620.97;5098068;28;20044;-58
2022/12/11 14:57:32;;;;;;;7.78;4.88;;;;;;;-1.05;84.37;97633.81;5089486;28;20044;-53
2022/12/11 15:00:23;;;;;;;7.07;4.45;;;;;;;-1.11;85.25;97637.47;5090865;28;20506;-56
2022/12/11 15:03:11;;;;;;;8.40;4.90;;;;;;;-1.06;85.42;97635.53;5088882;28;20048;-54
2022/12/11 15:05:57;;;;;;;8.38;5.10;;;;;;;-0.94;88.15;97646.22;5100862;27;20036;-56
2022/12/11 15:08:42;;;;;;;8.38;5.05;;;;;;;-0.77;87.72;97650.72;5087849;28;20812;-52
2022/12/11 15:11:30;;;;;;;7.15;4.90;;;;;;;-0.76;85.77;97654.97;5087416;28;20039;-53
2022/12/11 15:14:18;;;;;;;6.72;4.20;;;;;;;-1.08;84.24;97647.63;5087192;28;20052;-66
2022/12/11 15:17:02;;;;;;;8.20;4.65;;;;;;;-0.98;86.51;97648.09;5082570;28;21079;-59
2022/12/11 15:20:08;;;;;;;8.32;4.55;;;;;;;-0.98;85.70;97655.81;5082218;28;20056;-57
2022/12/11 15:22:56;;;;;;;6.97;4.40;;;;;;;-0.70;88.65;97656.47;5091040;28;21467;-59
2022/12/11 15:25:50;;;;;;;8.10;4.65;;;;;;;-0.74;84.36;97658.31;5067773;28;20772;-60
2022/12/11 15:28:36;;;;;;;7.72;4.88;;;;;;;-0.94;83.47;97653.94;5085375;28;20461;-59
2022/12/11 15:31:25;;;;;;;8.25;4.80;;;;;;;-0.95;85.69;97657.44;5085887;28;20036;-58
2022/12/11 15:34:21;;;;;;;7.63;4.65;;;;;;;-1.16;82.04;97668.47;5085106;28;20050;-60
2022/12/11 15:37:24;;;;;;;8.23;4.65;;;;;;;-1.33;82.92;97656.28;5087737;28;20039;-58
2022/12/11 15:40:10;;;;;;;7.60;4.55;;;;;;;-1.28;85.10;97674.09;5088261;28;20213;-59
2022/12/11 15:42:56;;;;;;;7.57;5.13;;;;;;;-0.98;89.28;97678.13;5085003;28;20110;-73
2022/12/11 15:45:42;;;;;;;9.77;5.00;;;;;;;-0.07;92.97;97660.75;5082283;28;20059;-63
2022/12/11 15:48:26;;;;;;;8.48;5.28;;;;;;;-0.67;82.98;97670.00;5085032;28;20099;-67
2022/12/11 15:51:11;;;;;;;6.63;4.65;;;;;;;0.84;98.17;97675.66;5087462;28;20047;-61
2022/12/11 15:53:56;;;;;;;8.07;4.47;;;;;;;0.79;91.60;97674.19;5070688;28;20040;-69
2022/12/11 15:56:41;;;;;;;9.18;5.38;;;;;;;-0.44;76.48;97681.13;5086260;28;20048;-65
2022/12/11 15:59:26;;;;;;;9.57;4.68;;;;;;;-0.36;87.68;97685.13;5087814;28;20550;-59
2022/12/11 16:02:11;;;;;;;8.48;4.55;;;;;;;-0.15;79.25;97679.06;5088675;28;20066;-58
2022/12/11 16:04:56;;;;;;;6.60;4.50;;;;;;;-0.27;80.95;97671.88;5089280;28;20036;-57
2022/12/11 16:07:41;;;;;;;7.63;4.95;;;;;;;-0.80;79.28;97686.84;5089520;28;20047;-60
2022/12/11 16:10:26;;;;;;;7.78;4.80;;;;;;;-0.97;81.05;97664.34;5090421;28;20050;-60
2022/12/11 16:13:12;;;;;;;8.23;4.75;;;;;;;-0.85;84.81;97679.31;5090698;28;20079;-59
2022/12/11 16:15:57;;;;;;;8.88;5.28;;;;;;;-1.22;83.68;97684.13;5082485;28;20120;-60
2022/12/11 16:18:42;;;;;;;6.70;4.50;;;;;;;-1.42;82.14;97683.13;5087512;28;20048;-60
2022/12/11 16:21:27;;;;;;;8.77;5.78;;;;;;;-1.12;87.25;97690.63;5082645;28;20101;-58
2022/12/11 16:24:11;;;;;;;8.02;5.03;;;;;;;-1.25;81.52;97691.97;5081563;28;20067;-58
2022/12/11 16:26:56;;;;;;;7.53;4.80;;;;;;;-1.31;84.71;97698.19;5082758;28;20047;-58
2022/12/11 16:29:41;;;;;;;7.88;4.88;;;;;;;-1.40;82.77;97683.09;5089399;28;20073;-59